Aviation Digital Data Service (ADDS)

Output produced by METARs form (0039 UTC 23 March 2019)
found at http://www.aviationweather.gov/metar/data/
 
METAR text: BGTL 222156Z AUTO 11004KT 9999 CLR M29/M35 A2965 RMK AO2 SLP035 T12931351 TSNO $
Conditions at: BGTL (THULE AB , GL) observed 2156 UTC 22 March 2019
Temperature: -29.3°C (-21°F)
Dewpoint: -35.1°C (-31°F) [RH = 57%]
Pressure (altimeter): 29.65 inches Hg (1004.1 mb)
[Sea-level pressure: 1003.5 mb]
Winds: from the ESE (110 degrees) at 5 MPH (4 knots; 2.1 m/s)
Visibility: 6 or more miles (10+ km)
Ceiling: at least 12,000 feet AGL
Clouds: sky clear below 12,000 feet AGL
Weather:
SOME DATA ABOVE MAY BE INACCURATE!!!
"$" is an indication the sensor requires maintenance

METAR text: BGTL 222056Z AUTO 10006KT 9999 CLR M29/M35 A2965 RMK AO2 SLP035 T12861348 50005 TSNO $
Conditions at: BGTL (THULE AB , GL) observed 2056 UTC 22 March 2019
Temperature: -28.6°C (-19°F)
Dewpoint: -34.8°C (-31°F) [RH = 55%]
Pressure (altimeter): 29.65 inches Hg (1004.1 mb)
[Sea-level pressure: 1003.5 mb]
Winds: from the E (100 degrees) at 7 MPH (6 knots; 3.1 m/s)
Visibility: 6 or more miles (10+ km)
Ceiling: at least 12,000 feet AGL
Clouds: sky clear below 12,000 feet AGL
Weather:
SOME DATA ABOVE MAY BE INACCURATE!!!
"$" is an indication the sensor requires maintenance

METAR text: BGTL 221956Z AUTO 10004KT 9999 CLR M27/M33 A2965 RMK AO2 SLP034 T12751335 TSNO $
Conditions at: BGTL (THULE AB , GL) observed 1956 UTC 22 March 2019
Temperature: -27.5°C (-18°F)
Dewpoint: -33.5°C (-28°F) [RH = 57%]
Pressure (altimeter): 29.65 inches Hg (1004.1 mb)
[Sea-level pressure: 1003.4 mb]
Winds: from the E (100 degrees) at 5 MPH (4 knots; 2.1 m/s)
Visibility: 6 or more miles (10+ km)
Ceiling: at least 12,000 feet AGL
Clouds: sky clear below 12,000 feet AGL
Weather:
SOME DATA ABOVE MAY BE INACCURATE!!!
"$" is an indication the sensor requires maintenance

METAR text: BGTL 221856Z AUTO 13007KT 9999 CLR M27/M33 A2964 RMK AO2 SLP031 T12741333 TSNO $
Conditions at: BGTL (THULE AB , GL) observed 1856 UTC 22 March 2019
Temperature: -27.4°C (-17°F)
Dewpoint: -33.3°C (-28°F) [RH = 57%]
Pressure (altimeter): 29.64 inches Hg (1003.8 mb)
[Sea-level pressure: 1003.1 mb]
Winds: from the SE (130 degrees) at 8 MPH (7 knots; 3.6 m/s)
Visibility: 6 or more miles (10+ km)
Ceiling: at least 12,000 feet AGL
Clouds: sky clear below 12,000 feet AGL
Weather:
SOME DATA ABOVE MAY BE INACCURATE!!!
"$" is an indication the sensor requires maintenance

METAR text: BGTL 221756Z AUTO 14005KT 9999 CLR M27/M33 A2963 RMK AO2 SLP028 T12671333 11258 21293 52006 TSNO $
Conditions at: BGTL (THULE AB , GL) observed 1756 UTC 22 March 2019
Temperature: -26.7°C (-16°F)
Dewpoint: -33.3°C (-28°F) [RH = 54%]
Pressure (altimeter): 29.63 inches Hg (1003.5 mb)
[Sea-level pressure: 1002.8 mb]
Winds: from the SE (140 degrees) at 6 MPH (5 knots; 2.6 m/s)
Visibility: 6 or more miles (10+ km)
Ceiling: at least 12,000 feet AGL
Clouds: sky clear below 12,000 feet AGL
Weather:
SOME DATA ABOVE MAY BE INACCURATE!!!
"$" is an indication the sensor requires maintenance

METAR text: BGTL 221656Z AUTO 11003KT 9999 CLR M26/M33 A2963 RMK AO2 SLP027 T12641330 TSNO $
Conditions at: BGTL (THULE AB , GL) observed 1656 UTC 22 March 2019
Temperature: -26.4°C (-16°F)
Dewpoint: -33.0°C (-27°F) [RH = 54%]
Pressure (altimeter): 29.63 inches Hg (1003.5 mb)
[Sea-level pressure: 1002.7 mb]
Winds: from the ESE (110 degrees) at 3 MPH (3 knots; 1.5 m/s)
Visibility: 6 or more miles (10+ km)
Ceiling: at least 12,000 feet AGL
Clouds: sky clear below 12,000 feet AGL
Weather:
SOME DATA ABOVE MAY BE INACCURATE!!!
"$" is an indication the sensor requires maintenance

METAR text: BGTL 221556Z AUTO 07003KT 9999 CLR M27/M33 A2963 RMK AO2 SLP028 T12701334 TSNO $
Conditions at: BGTL (THULE AB , GL) observed 1556 UTC 22 March 2019
Temperature: -27.0°C (-17°F)
Dewpoint: -33.4°C (-28°F) [RH = 55%]
Pressure (altimeter): 29.63 inches Hg (1003.5 mb)
[Sea-level pressure: 1002.8 mb]
Winds: from the ENE (70 degrees) at 3 MPH (3 knots; 1.5 m/s)
Visibility: 6 or more miles (10+ km)
Ceiling: at least 12,000 feet AGL
Clouds: sky clear below 12,000 feet AGL
Weather:
SOME DATA ABOVE MAY BE INACCURATE!!!
"$" is an indication the sensor requires maintenance

METAR text: BGTL 221456Z AUTO 10009KT 9999 CLR M28/M33 A2961 RMK AO2 SLP021 T12781335 TSNO $
Conditions at: BGTL (THULE AB , GL) observed 1456 UTC 22 March 2019
Temperature: -27.8°C (-18°F)
Dewpoint: -33.5°C (-28°F) [RH = 58%]
Pressure (altimeter): 29.61 inches Hg (1002.8 mb)
[Sea-level pressure: 1002.1 mb]
Winds: from the E (100 degrees) at 10 MPH (9 knots; 4.6 m/s)
Visibility: 6 or more miles (10+ km)
Ceiling: at least 12,000 feet AGL
Clouds: sky clear below 12,000 feet AGL
Weather:
SOME DATA ABOVE MAY BE INACCURATE!!!
"$" is an indication the sensor requires maintenance

METAR text: BGTL 221356Z AUTO 00000KT 9999 CLR M28/M34 A2962 RMK AO2 SLP024 T12821338 TSNO $
Conditions at: BGTL (THULE AB , GL) observed 1356 UTC 22 March 2019
Temperature: -28.2°C (-19°F)
Dewpoint: -33.8°C (-29°F) [RH = 59%]
Pressure (altimeter): 29.62 inches Hg (1003.1 mb)
[Sea-level pressure: 1002.4 mb]
Winds: calm
Visibility: 6 or more miles (10+ km)
Ceiling: at least 12,000 feet AGL
Clouds: sky clear below 12,000 feet AGL
Weather:
SOME DATA ABOVE MAY BE INACCURATE!!!
"$" is an indication the sensor requires maintenance

METAR text: BGTL 221256Z 00000KT 9999 CLR M29/M34 A2962 RMK AO2A SLP024 T12901343
Conditions at: BGTL (THULE AB , GL) observed 1256 UTC 22 March 2019
Temperature: -29.0°C (-20°F)
Dewpoint: -34.3°C (-30°F) [RH = 60%]
Pressure (altimeter): 29.62 inches Hg (1003.1 mb)
[Sea-level pressure: 1002.4 mb]
Winds: calm
Visibility: 6 or more miles (10+ km)
Ceiling: at least 12,000 feet AGL
Clouds: sky clear below 12,000 feet AGL
Weather: no significant weather observed at this time

METAR text: BGTL 221156Z 09006KT 9999 CLR M31/M36 A2962 RMK AO2A SLP025 4/005 T13081363 11283 21308 55002 TSNO
Conditions at: BGTL (THULE AB , GL) observed 1156 UTC 22 March 2019
Temperature: -30.8°C (-23°F)
Dewpoint: -36.3°C (-33°F) [RH = 58%]
Pressure (altimeter): 29.62 inches Hg (1003.1 mb)
[Sea-level pressure: 1002.5 mb]
Winds: from the E (90 degrees) at 7 MPH (6 knots; 3.1 m/s)
Visibility: 6 or more miles (10+ km)
Ceiling: at least 12,000 feet AGL
Clouds: sky clear below 12,000 feet AGL
Weather: no significant weather observed at this time

METAR text: BGTL 220956Z AUTO 14006KT 9999 SCT065 M30/M36 A2962 RMK AO2 SLPNO T13041358 TSNO $
Conditions at: BGTL (THULE AB , GL) observed 0956 UTC 22 March 2019
Temperature: -30.4°C (-23°F)
Dewpoint: -35.8°C (-32°F) [RH = 59%]
Pressure (altimeter): 29.62 inches Hg (1003.1 mb)
Winds: from the SE (140 degrees) at 7 MPH (6 knots; 3.1 m/s)
Visibility: 6 or more miles (10+ km)
Ceiling: at least 12,000 feet AGL
Clouds: scattered clouds at 6500 feet AGL
Weather:
SOME DATA ABOVE MAY BE INACCURATE!!!
"$" is an indication the sensor requires maintenance

METAR text: BGTL 220856Z AUTO 12007KT 9999 CLR M29/M35 A2962 RMK AO2 SLPNO T12951348 52009 TSNO $
Conditions at: BGTL (THULE AB , GL) observed 0856 UTC 22 March 2019
Temperature: -29.5°C (-21°F)
Dewpoint: -34.8°C (-31°F) [RH = 60%]
Pressure (altimeter): 29.62 inches Hg (1003.1 mb)
Winds: from the ESE (120 degrees) at 8 MPH (7 knots; 3.6 m/s)
Visibility: 6 or more miles (10+ km)
Ceiling: at least 12,000 feet AGL
Clouds: sky clear below 12,000 feet AGL
Weather:
SOME DATA ABOVE MAY BE INACCURATE!!!
"$" is an indication the sensor requires maintenance

METAR text: BGTL 220756Z AUTO 13006KT 9999 CLR M29/M34 A2961 RMK AO2 SLPNO T12911345 TSNO $
Conditions at: BGTL (THULE AB , GL) observed 0756 UTC 22 March 2019
Temperature: -29.1°C (-20°F)
Dewpoint: -34.5°C (-30°F) [RH = 60%]
Pressure (altimeter): 29.61 inches Hg (1002.8 mb)
Winds: from the SE (130 degrees) at 7 MPH (6 knots; 3.1 m/s)
Visibility: 6 or more miles (10+ km)
Ceiling: at least 12,000 feet AGL
Clouds: sky clear below 12,000 feet AGL
Weather:
SOME DATA ABOVE MAY BE INACCURATE!!!
"$" is an indication the sensor requires maintenance

METAR text: BGTL 220656Z AUTO 11009KT 9999 CLR M30/M34 A2960 RMK AO2 SLPNO T12961345 TSNO $
Conditions at: BGTL (THULE AB , GL) observed 0656 UTC 22 March 2019
Temperature: -29.6°C (-21°F)
Dewpoint: -34.5°C (-30°F) [RH = 62%]
Pressure (altimeter): 29.60 inches Hg (1002.5 mb)
Winds: from the ESE (110 degrees) at 10 MPH (9 knots; 4.6 m/s)
Visibility: 6 or more miles (10+ km)
Ceiling: at least 12,000 feet AGL
Clouds: sky clear below 12,000 feet AGL
Weather:
SOME DATA ABOVE MAY BE INACCURATE!!!
"$" is an indication the sensor requires maintenance

METAR text: BGTL 220640Z AUTO 15011KT 9999 CLR M29/M34 A2960 RMK AO2 WSHFT 37 SLPNO TSNO $
Conditions at: BGTL (THULE AB , GL) observed 0640 UTC 22 March 2019
Temperature: -29.0°C (-20°F)
Dewpoint: -34.0°C (-29°F) [RH = 62%]
Pressure (altimeter): 29.60 inches Hg (1002.5 mb)
Winds: from the SSE (150 degrees) at 13 MPH (11 knots; 5.7 m/s)
Visibility: 6 or more miles (10+ km)
Ceiling: at least 12,000 feet AGL
Clouds: sky clear below 12,000 feet AGL
Weather:
SOME DATA ABOVE MAY BE INACCURATE!!!
"$" is an indication the sensor requires maintenance

METAR text: BGTL 220556Z AUTO 08007KT 9999 CLR M29/M33 A2959 RMK AO2 SLPNO T12861334 11273 21291 53022 TSNO $
Conditions at: BGTL (THULE AB , GL) observed 0556 UTC 22 March 2019
Temperature: -28.6°C (-19°F)
Dewpoint: -33.4°C (-28°F) [RH = 63%]
Pressure (altimeter): 29.59 inches Hg (1002.1 mb)
Winds: from the E (80 degrees) at 8 MPH (7 knots; 3.6 m/s)
Visibility: 6 or more miles (10+ km)
Ceiling: at least 12,000 feet AGL
Clouds: sky clear below 12,000 feet AGL
Weather:
SOME DATA ABOVE MAY BE INACCURATE!!!
"$" is an indication the sensor requires maintenance

METAR text: BGTL 220505Z AUTO 11010G17KT 9999 CLR M28/M33 A2956 RMK AO2 WSHFT 02 SLPNO TSNO $
Conditions at: BGTL (THULE AB , GL) observed 0505 UTC 22 March 2019
Temperature: -28.0°C (-18°F)
Dewpoint: -33.0°C (-27°F) [RH = 62%]
Pressure (altimeter): 29.56 inches Hg (1001.1 mb)
Winds: from the ESE (110 degrees) at 12 MPH (10 knots; 5.1 m/s)
gusting to 20 MPH (17 knots; 8.7 m/s)
Visibility: 6 or more miles (10+ km)
Ceiling: at least 12,000 feet AGL
Clouds: sky clear below 12,000 feet AGL
Weather:
SOME DATA ABOVE MAY BE INACCURATE!!!
"$" is an indication the sensor requires maintenance

METAR text: BGTL 220456Z AUTO 14009KT 9999 CLR M28/M32 A2956 RMK AO2 SLPNO T12791324 TSNO $
Conditions at: BGTL (THULE AB , GL) observed 0456 UTC 22 March 2019
Temperature: -27.9°C (-18°F)
Dewpoint: -32.4°C (-26°F) [RH = 65%]
Pressure (altimeter): 29.56 inches Hg (1001.1 mb)
Winds: from the SE (140 degrees) at 10 MPH (9 knots; 4.6 m/s)
Visibility: 6 or more miles (10+ km)
Ceiling: at least 12,000 feet AGL
Clouds: sky clear below 12,000 feet AGL
Weather:
SOME DATA ABOVE MAY BE INACCURATE!!!
"$" is an indication the sensor requires maintenance

METAR text: BGTL 220428Z AUTO 12012KT 9999 CLR M28/M33 A2955 RMK AO2 WSHFT 16 SLPNO TSNO $
Conditions at: BGTL (THULE AB , GL) observed 0428 UTC 22 March 2019
Temperature: -28.0°C (-18°F)
Dewpoint: -33.0°C (-27°F) [RH = 62%]
Pressure (altimeter): 29.55 inches Hg (1000.8 mb)
Winds: from the ESE (120 degrees) at 14 MPH (12 knots; 6.2 m/s)
Visibility: 6 or more miles (10+ km)
Ceiling: at least 12,000 feet AGL
Clouds: sky clear below 12,000 feet AGL
Weather:
SOME DATA ABOVE MAY BE INACCURATE!!!
"$" is an indication the sensor requires maintenance

METAR text: BGTL 220356Z AUTO 07008KT 9999 CLR M29/M34 A2953 RMK AO2 SLPNO T12861341 412731320 TSNO $
Conditions at: BGTL (THULE AB , GL) observed 0356 UTC 22 March 2019
Temperature: -28.6°C (-19°F)
Dewpoint: -34.1°C (-29°F) [RH = 59%]
Pressure (altimeter): 29.53 inches Hg (1000.1 mb)
Winds: from the ENE (70 degrees) at 9 MPH (8 knots; 4.1 m/s)
Visibility: 6 or more miles (10+ km)
Ceiling: at least 12,000 feet AGL
Clouds: sky clear below 12,000 feet AGL
Weather:
SOME DATA ABOVE MAY BE INACCURATE!!!
"$" is an indication the sensor requires maintenance

METAR text: BGTL 220256Z AUTO 12010KT 9999 CLR M28/M34 A2953 RMK AO2 SLPNO T12831338 52024 TSNO $
Conditions at: BGTL (THULE AB , GL) observed 0256 UTC 22 March 2019
Temperature: -28.3°C (-19°F)
Dewpoint: -33.8°C (-29°F) [RH = 59%]
Pressure (altimeter): 29.53 inches Hg (1000.1 mb)
Winds: from the ESE (120 degrees) at 12 MPH (10 knots; 5.1 m/s)
Visibility: 6 or more miles (10+ km)
Ceiling: at least 12,000 feet AGL
Clouds: sky clear below 12,000 feet AGL
Weather:
SOME DATA ABOVE MAY BE INACCURATE!!!
"$" is an indication the sensor requires maintenance

METAR text: BGTL 220156Z AUTO 11013KT 9999 FEW021 M28/M32 A2950 RMK AO2 SLP984 T12821325 TSNO $
Conditions at: BGTL (THULE AB , GL) observed 0156 UTC 22 March 2019
Temperature: -28.2°C (-19°F)
Dewpoint: -32.5°C (-26°F) [RH = 67%]
Pressure (altimeter): 29.50 inches Hg (999.1 mb)
[Sea-level pressure:  998.4 mb]
Winds: from the ESE (110 degrees) at 15 MPH (13 knots; 6.7 m/s)
Visibility: 6 or more miles (10+ km)
Ceiling: at least 12,000 feet AGL
Clouds: few clouds at 2100 feet AGL
Weather:
SOME DATA ABOVE MAY BE INACCURATE!!!
"$" is an indication the sensor requires maintenance

METAR text: BGTL 220151Z AUTO 11012KT 9999 SCT021 M28/M32 A2950 RMK AO2 SLP984 TSNO $
Conditions at: BGTL (THULE AB , GL) observed 0151 UTC 22 March 2019
Temperature: -28.0°C (-18°F)
Dewpoint: -32.0°C (-26°F) [RH = 69%]
Pressure (altimeter): 29.50 inches Hg (999.1 mb)
[Sea-level pressure:  998.4 mb]
Winds: from the ESE (110 degrees) at 14 MPH (12 knots; 6.2 m/s)
Visibility: 6 or more miles (10+ km)
Ceiling: at least 12,000 feet AGL
Clouds: scattered clouds at 2100 feet AGL
Weather:
SOME DATA ABOVE MAY BE INACCURATE!!!
"$" is an indication the sensor requires maintenance

METAR text: BGTL 220141Z AUTO 12013KT 9999 BKN021 M28/M32 A2950 RMK AO2 WSHFT 26 SLP984 TSNO $
Conditions at: BGTL (THULE AB , GL) observed 0141 UTC 22 March 2019
Temperature: -28.0°C (-18°F)
Dewpoint: -32.0°C (-26°F) [RH = 69%]
Pressure (altimeter): 29.50 inches Hg (999.1 mb)
[Sea-level pressure:  998.4 mb]
Winds: from the ESE (120 degrees) at 15 MPH (13 knots; 6.7 m/s)
Visibility: 6 or more miles (10+ km)
Ceiling: 2100 feet AGL
Clouds: broken clouds at 2100 feet AGL
Weather:
SOME DATA ABOVE MAY BE INACCURATE!!!
"$" is an indication the sensor requires maintenance

METAR text: BGTL 220136Z AUTO 14016KT 9999 OVC020 M28/M31 A2949 RMK AO2 SLP980 TSNO $
Conditions at: BGTL (THULE AB , GL) observed 0136 UTC 22 March 2019
Temperature: -28.0°C (-18°F)
Dewpoint: -31.0°C (-24°F) [RH = 75%]
Pressure (altimeter): 29.49 inches Hg (998.7 mb)
[Sea-level pressure:  998.0 mb]
Winds: from the SE (140 degrees) at 18 MPH (16 knots; 8.2 m/s)
Visibility: 6 or more miles (10+ km)
Ceiling: 2000 feet AGL
Clouds: overcast cloud deck at 2000 feet AGL
Weather:
SOME DATA ABOVE MAY BE INACCURATE!!!
"$" is an indication the sensor requires maintenance

METAR text: BGTL 220056Z AUTO 15016KT 6000 HZ OVC016 M27/M31 A2947 RMK AO2 SLP974 T12731309 TSNO $
Conditions at: BGTL (THULE AB , GL) observed 0056 UTC 22 March 2019
Temperature: -27.3°C (-17°F)
Dewpoint: -30.9°C (-24°F) [RH = 71%]
Pressure (altimeter): 29.47 inches Hg (998.1 mb)
[Sea-level pressure:  997.4 mb]
Winds: from the SSE (150 degrees) at 18 MPH (16 knots; 8.2 m/s)
Visibility: 4 miles ( 6 km)
Ceiling: 1600 feet AGL
Clouds: overcast cloud deck at 1600 feet AGL
Weather: HZ  (haze)
SOME DATA ABOVE MAY BE INACCURATE!!!
"$" is an indication the sensor requires maintenance

METAR text: BGTL 220048Z AUTO 16018KT 4400 HZ OVC016 M27/M31 A2947 RMK AO2 VIS 3600V4400 SLP974 TSNO $
Conditions at: BGTL (THULE AB , GL) observed 0048 UTC 22 March 2019
Temperature: -27.0°C (-17°F)
Dewpoint: -31.0°C (-24°F) [RH = 69%]
Pressure (altimeter): 29.47 inches Hg (998.1 mb)
[Sea-level pressure:  997.4 mb]
Winds: from the SSE (160 degrees) at 21 MPH (18 knots; 9.3 m/s)
Visibility: 2.73 miles (4.39 km)
Ceiling: 1600 feet AGL
Clouds: overcast cloud deck at 1600 feet AGL
Weather: HZ  (haze)
SOME DATA ABOVE MAY BE INACCURATE!!!
"$" is an indication the sensor requires maintenance

METAR text: BGTL 220038Z AUTO 16019KT 3600 HZ OVC016 M27/M31 A2947 RMK AO2 VIS 2800V3600 SLP974 TSNO $
Conditions at: BGTL (THULE AB , GL) observed 0038 UTC 22 March 2019
Temperature: -27.0°C (-17°F)
Dewpoint: -31.0°C (-24°F) [RH = 69%]
Pressure (altimeter): 29.47 inches Hg (998.1 mb)
[Sea-level pressure:  997.4 mb]
Winds: from the SSE (160 degrees) at 22 MPH (19 knots; 9.8 m/s)
Visibility: 2.24 miles (3.60 km)
Ceiling: 1600 feet AGL
Clouds: overcast cloud deck at 1600 feet AGL
Weather: HZ  (haze)
SOME DATA ABOVE MAY BE INACCURATE!!!
"$" is an indication the sensor requires maintenance

METAR text: BGTL 220028Z AUTO 17020KT 2800 HZ OVC018 M27/M31 A2946 RMK AO2 SLP970 TSNO $
Conditions at: BGTL (THULE AB , GL) observed 0028 UTC 22 March 2019
Temperature: -27.0°C (-17°F)
Dewpoint: -31.0°C (-24°F) [RH = 69%]
Pressure (altimeter): 29.46 inches Hg (997.7 mb)
[Sea-level pressure:  997.0 mb]
Winds: from the S (170 degrees) at 23 MPH (20 knots; 10.3 m/s)
Visibility: 1.74 miles (2.80 km)
Ceiling: 1800 feet AGL
Clouds: overcast cloud deck at 1800 feet AGL
Weather: HZ  (haze)
SOME DATA ABOVE MAY BE INACCURATE!!!
"$" is an indication the sensor requires maintenance

METAR text: BGTL 220018Z AUTO 17021KT 3600 HZ OVC020 M27/M31 A2945 RMK AO2 VIS 3600V5000 SLP967 TSNO $
Conditions at: BGTL (THULE AB , GL) observed 0018 UTC 22 March 2019
Temperature: -27.0°C (-17°F)
Dewpoint: -31.0°C (-24°F) [RH = 69%]
Pressure (altimeter): 29.45 inches Hg (997.4 mb)
[Sea-level pressure:  996.7 mb]
Winds: from the S (170 degrees) at 24 MPH (21 knots; 10.8 m/s)
Visibility: 2.24 miles (3.60 km)
Ceiling: 2000 feet AGL
Clouds: overcast cloud deck at 2000 feet AGL
Weather: HZ  (haze)
SOME DATA ABOVE MAY BE INACCURATE!!!
"$" is an indication the sensor requires maintenance

METAR text: BGTL 212358Z AUTO 13013KT 9000 HZ OVC017 M28/M31 A2946 RMK AO2 WSHFT 57 SLP970 TSNO $
Conditions at: BGTL (THULE AB , GL) observed 2358 UTC 21 March 2019
Temperature: -28.0°C (-18°F)
Dewpoint: -31.0°C (-24°F) [RH = 75%]
Pressure (altimeter): 29.46 inches Hg (997.7 mb)
[Sea-level pressure:  997.0 mb]
Winds: from the SE (130 degrees) at 15 MPH (13 knots; 6.7 m/s)
Visibility: 6 miles ( 9 km)
Ceiling: 1700 feet AGL
Clouds: overcast cloud deck at 1700 feet AGL
Weather: HZ  (haze)
SOME DATA ABOVE MAY BE INACCURATE!!!
"$" is an indication the sensor requires maintenance

METAR text: BGTL 212356Z AUTO 09010KT 8000 HZ OVC017 M28/M31 A2946 RMK AO2 CIG 013V017 SLP970 T12791309 11279 21297 TSNO $
Conditions at: BGTL (THULE AB , GL) observed 2356 UTC 21 March 2019
Temperature: -27.9°C (-18°F)
Dewpoint: -30.9°C (-24°F) [RH = 75%]
Pressure (altimeter): 29.46 inches Hg (997.7 mb)
[Sea-level pressure:  997.0 mb]
Winds: from the E (90 degrees) at 12 MPH (10 knots; 5.1 m/s)
Visibility: 5 miles ( 8 km)
Ceiling: 1700 feet AGL
Clouds: overcast cloud deck at 1700 feet AGL
Weather: HZ  (haze)
SOME DATA ABOVE MAY BE INACCURATE!!!
"$" is an indication the sensor requires maintenance

METAR text: BGTL 212355Z AUTO 10010KT 8000 HZ OVC017 M28/M31 A2946 RMK AO2 CIG 013V017 SLP970 TSNO $
Conditions at: BGTL (THULE AB , GL) observed 2355 UTC 21 March 2019
Temperature: -28.0°C (-18°F)
Dewpoint: -31.0°C (-24°F) [RH = 75%]
Pressure (altimeter): 29.46 inches Hg (997.7 mb)
[Sea-level pressure:  997.0 mb]
Winds: from the E (100 degrees) at 12 MPH (10 knots; 5.1 m/s)
Visibility: 5 miles ( 8 km)
Ceiling: 1700 feet AGL
Clouds: overcast cloud deck at 1700 feet AGL
Weather: HZ  (haze)
SOME DATA ABOVE MAY BE INACCURATE!!!
"$" is an indication the sensor requires maintenance

METAR text: BGTL 212345Z AUTO 10010KT 5000 HZ OVC013 M29/M32 A2945 RMK AO2 SLP967 TSNO $
Conditions at: BGTL (THULE AB , GL) observed 2345 UTC 21 March 2019
Temperature: -29.0°C (-20°F)
Dewpoint: -32.0°C (-26°F) [RH = 75%]
Pressure (altimeter): 29.45 inches Hg (997.4 mb)
[Sea-level pressure:  996.7 mb]
Winds: from the E (100 degrees) at 12 MPH (10 knots; 5.1 m/s)
Visibility: 3 miles ( 5 km)
Ceiling: 1300 feet AGL
Clouds: overcast cloud deck at 1300 feet AGL
Weather: HZ  (haze)
SOME DATA ABOVE MAY BE INACCURATE!!!
"$" is an indication the sensor requires maintenance

METAR text: BGTL 212335Z AUTO 09010KT 4000 HZ OVC011 M30/M33 A2945 RMK AO2 SLPNO TSNO $
Conditions at: BGTL (THULE AB , GL) observed 2335 UTC 21 March 2019
Temperature: -30.0°C (-22°F)
Dewpoint: -33.0°C (-27°F) [RH = 75%]
Pressure (altimeter): 29.45 inches Hg (997.4 mb)
Winds: from the E (90 degrees) at 12 MPH (10 knots; 5.1 m/s)
Visibility: 2.49 miles (4.01 km)
Ceiling: 1100 feet AGL
Clouds: overcast cloud deck at 1100 feet AGL
Weather: HZ  (haze)
SOME DATA ABOVE MAY BE INACCURATE!!!
"$" is an indication the sensor requires maintenance

METAR text: BGTL 212326Z AUTO 12009KT 4400 HZ OVC013 M29/M32 A2944 RMK AO2 CIG 006 RWY26 SLPNO TSNO $
Conditions at: BGTL (THULE AB , GL) observed 2326 UTC 21 March 2019
Temperature: -29.0°C (-20°F)
Dewpoint: -32.0°C (-26°F) [RH = 75%]
Pressure (altimeter): 29.44 inches Hg (997.0 mb)
Winds: from the ESE (120 degrees) at 10 MPH (9 knots; 4.6 m/s)
Visibility: 2.73 miles (4.39 km)
Ceiling: 1300 feet AGL
Clouds: overcast cloud deck at 1300 feet AGL
Weather: HZ  (haze)
SOME DATA ABOVE MAY BE INACCURATE!!!
"$" is an indication the sensor requires maintenance

METAR text: BGTL 212316Z AUTO 11010KT 3600 HZ OVC014 M29/M32 A2944 RMK AO2 VIS 2800V3600 SLPNO TSNO $
Conditions at: BGTL (THULE AB , GL) observed 2316 UTC 21 March 2019
Temperature: -29.0°C (-20°F)
Dewpoint: -32.0°C (-26°F) [RH = 75%]
Pressure (altimeter): 29.44 inches Hg (997.0 mb)
Winds: from the ESE (110 degrees) at 12 MPH (10 knots; 5.1 m/s)
Visibility: 2.24 miles (3.60 km)
Ceiling: 1400 feet AGL
Clouds: overcast cloud deck at 1400 feet AGL
Weather: HZ  (haze)
SOME DATA ABOVE MAY BE INACCURATE!!!
"$" is an indication the sensor requires maintenance

METAR text: BGTL 212306Z AUTO 11010KT 2800 HZ OVC016 M29/M32 A2944 RMK AO2 VIS 2800V8000 SLPNO TSNO $
Conditions at: BGTL (THULE AB , GL) observed 2306 UTC 21 March 2019
Temperature: -29.0°C (-20°F)
Dewpoint: -32.0°C (-26°F) [RH = 75%]
Pressure (altimeter): 29.44 inches Hg (997.0 mb)
Winds: from the ESE (110 degrees) at 12 MPH (10 knots; 5.1 m/s)
Visibility: 1.74 miles (2.80 km)
Ceiling: 1600 feet AGL
Clouds: overcast cloud deck at 1600 feet AGL
Weather: HZ  (haze)
SOME DATA ABOVE MAY BE INACCURATE!!!
"$" is an indication the sensor requires maintenance

METAR text: BGTL 212256Z AUTO 13010KT 9000 HZ BKN014 M29/M32 A2944 RMK AO2 SLPNO T12881321 TSNO $
Conditions at: BGTL (THULE AB , GL) observed 2256 UTC 21 March 2019
Temperature: -28.8°C (-20°F)
Dewpoint: -32.1°C (-26°F) [RH = 73%]
Pressure (altimeter): 29.44 inches Hg (997.0 mb)
Winds: from the SE (130 degrees) at 12 MPH (10 knots; 5.1 m/s)
Visibility: 6 miles ( 9 km)
Ceiling: 1400 feet AGL
Clouds: broken clouds at 1400 feet AGL
Weather: HZ  (haze)
SOME DATA ABOVE MAY BE INACCURATE!!!
"$" is an indication the sensor requires maintenance

METAR text: BGTL 212242Z AUTO 13011KT 9999 BKN012 M29/M32 A2944 RMK AO2 SLP964 TSNO $
Conditions at: BGTL (THULE AB , GL) observed 2242 UTC 21 March 2019
Temperature: -29.0°C (-20°F)
Dewpoint: -32.0°C (-26°F) [RH = 75%]
Pressure (altimeter): 29.44 inches Hg (997.0 mb)
[Sea-level pressure:  996.4 mb]
Winds: from the SE (130 degrees) at 13 MPH (11 knots; 5.7 m/s)
Visibility: 6 or more miles (10+ km)
Ceiling: 1200 feet AGL
Clouds: broken clouds at 1200 feet AGL
Weather:
SOME DATA ABOVE MAY BE INACCURATE!!!
"$" is an indication the sensor requires maintenance

METAR text: BGTL 211756Z 09006KT 9999 CLR M28/M31 A2944 RMK AO2A SLP964 4/005 T12771313 11271 221315 57017 TSNO $
Conditions at: BGTL (THULE AB , GL) observed 1756 UTC 21 March 2019
Temperature: -27.7°C (-18°F)
Dewpoint: -31.3°C (-24°F) [RH = 71%]
Pressure (altimeter): 29.44 inches Hg (997.0 mb)
[Sea-level pressure:  996.4 mb]
Winds: from the E (90 degrees) at 7 MPH (6 knots; 3.1 m/s)
Visibility: 6 or more miles (10+ km)
Ceiling: at least 12,000 feet AGL
Clouds: sky clear below 12,000 feet AGL
Weather:
SOME DATA ABOVE MAY BE INACCURATE!!!
"$" is an indication the sensor requires maintenance

METAR text: BGTL 211656Z 11004KT 9999 CLR M27/M31 A2946 RMK AO2A SLP970 P0015 T12711313 TSNO $
Conditions at: BGTL (THULE AB , GL) observed 1656 UTC 21 March 2019
Temperature: -27.1°C (-17°F)
Dewpoint: -31.3°C (-24°F) [RH = 67%]
Pressure (altimeter): 29.46 inches Hg (997.7 mb)
[Sea-level pressure:  997.0 mb]
Winds: from the ESE (110 degrees) at 5 MPH (4 knots; 2.1 m/s)
Visibility: 6 or more miles (10+ km)
Ceiling: at least 12,000 feet AGL
Clouds: sky clear below 12,000 feet AGL
Weather:
SOME DATA ABOVE MAY BE INACCURATE!!!
"$" is an indication the sensor requires maintenance

METAR text: BGTL 211556Z 09006KT 9999 FEW085 M27/M32 A2947 RMK AO2A SLP973 T12741318 TSNO $
Conditions at: BGTL (THULE AB , GL) observed 1556 UTC 21 March 2019
Temperature: -27.4°C (-17°F)
Dewpoint: -31.8°C (-25°F) [RH = 66%]
Pressure (altimeter): 29.47 inches Hg (998.1 mb)
[Sea-level pressure:  997.3 mb]
Winds: from the E (90 degrees) at 7 MPH (6 knots; 3.1 m/s)
Visibility: 6 or more miles (10+ km)
Ceiling: at least 12,000 feet AGL
Clouds: few clouds at 8500 feet AGL
Weather:
SOME DATA ABOVE MAY BE INACCURATE!!!
"$" is an indication the sensor requires maintenance

METAR text: BGTL 211456Z 09006KT 9999 SCT085 M27/M32 A2950 RMK AO2A SLP983 T12751322 56007 TSNO $
Conditions at: BGTL (THULE AB , GL) observed 1456 UTC 21 March 2019
Temperature: -27.5°C (-18°F)
Dewpoint: -32.2°C (-26°F) [RH = 64%]
Pressure (altimeter): 29.50 inches Hg (999.1 mb)
[Sea-level pressure:  998.3 mb]
Winds: from the E (90 degrees) at 7 MPH (6 knots; 3.1 m/s)
Visibility: 6 or more miles (10+ km)
Ceiling: at least 12,000 feet AGL
Clouds: scattered clouds at 8500 feet AGL
Weather:
SOME DATA ABOVE MAY BE INACCURATE!!!
"$" is an indication the sensor requires maintenance

METAR text: BGTL 211356Z AUTO 09007KT 9999 FEW090 M28/M33 A2950 RMK AO2 SLP984 T12841330 TSNO $
Conditions at: BGTL (THULE AB , GL) observed 1356 UTC 21 March 2019
Temperature: -28.4°C (-19°F)
Dewpoint: -33.0°C (-27°F) [RH = 65%]
Pressure (altimeter): 29.50 inches Hg (999.1 mb)
[Sea-level pressure:  998.4 mb]
Winds: from the E (90 degrees) at 8 MPH (7 knots; 3.6 m/s)
Visibility: 6 or more miles (10+ km)
Ceiling: at least 12,000 feet AGL
Clouds: few clouds at 9000 feet AGL
Weather:
SOME DATA ABOVE MAY BE INACCURATE!!!
"$" is an indication the sensor requires maintenance

METAR text: BGTL 211256Z AUTO 10009KT 9999 BKN090 M30/M34 A2950 RMK AO2 SLP984 T13041342 TSNO $
Conditions at: BGTL (THULE AB , GL) observed 1256 UTC 21 March 2019
Temperature: -30.4°C (-23°F)
Dewpoint: -34.2°C (-30°F) [RH = 69%]
Pressure (altimeter): 29.50 inches Hg (999.1 mb)
[Sea-level pressure:  998.4 mb]
Winds: from the E (100 degrees) at 10 MPH (9 knots; 4.6 m/s)
Visibility: 6 or more miles (10+ km)
Ceiling: 9000 feet AGL
Clouds: broken clouds at 9000 feet AGL
Weather:
SOME DATA ABOVE MAY BE INACCURATE!!!
"$" is an indication the sensor requires maintenance

Forecast for: BGTL (THULE AB , GL)
Text: TAF BGTL 221700Z 2217/2323 09009KT 9999 SCT150 QNH2963INS WND 080V180 TXM25/2218Z TNM35/2303Z LAST NO AMDS AFT 2219 NEXT 2509
Forecast period: 1700 UTC 22 March 2019 to 2300 UTC 23 March 2019
Forecast type: FROM: standard forecast or significant change
Winds: from the E (90 degrees) at 10 MPH (9 knots; 4.6 m/s)
Visibility: 6 or more miles 10+ km)
Ceiling: at least 12,000 feet AGL
Clouds: scattered clouds at 15000 feet AGL
Weather: no significant weather forecast for this period